createdAt,value
2022-12-19T00:02:22.991Z,78.25
2022-12-19T00:04:55.772Z,78.29
2022-12-19T00:07:25.158Z,78.79
2022-12-19T00:09:55.729Z,79.21
2022-12-19T00:12:29.400Z,78.81
2022-12-19T00:14:58.922Z,79.58
2022-12-19T00:17:31.383Z,78.76
2022-12-19T00:20:02.495Z,79.44
2022-12-19T00:22:35.042Z,80.12
2022-12-19T00:25:03.331Z,79.57
2022-12-19T00:27:37.450Z,80.04
2022-12-19T00:30:06.865Z,80.33
2022-12-19T00:32:35.075Z,79.67
2022-12-19T00:35:03.314Z,80.63
2022-12-19T00:37:31.538Z,80.50
2022-12-19T00:39:59.758Z,80.37
2022-12-19T00:42:29.492Z,79.93
2022-12-19T00:44:59.071Z,80.26
2022-12-19T00:47:28.724Z,80.55
2022-12-19T00:49:57.021Z,80.34
2022-12-19T00:52:25.264Z,81.39
2022-12-19T00:54:53.817Z,80.49
2022-12-19T00:57:22.066Z,80.61
2022-12-19T00:59:50.364Z,80.31
2022-12-19T01:02:21.056Z,80.79
2022-12-19T01:04:49.382Z,81.53
2022-12-19T01:07:17.617Z,81.36
2022-12-19T01:09:45.904Z,81.58
2022-12-19T01:12:33.371Z,81.41
2022-12-19T01:15:04.928Z,80.77
2022-12-19T01:17:43.548Z,81.56
2022-12-19T01:20:13.837Z,81.73
2022-12-19T01:22:42.146Z,80.97
2022-12-19T01:25:10.704Z,80.92
2022-12-19T01:27:48.761Z,81.96
2022-12-19T01:30:17.168Z,81.92
2022-12-19T01:32:48.016Z,81.69
2022-12-19T01:35:21.172Z,81.01
2022-12-19T01:37:50.855Z,81.30
2022-12-19T01:40:19.317Z,81.99
2022-12-19T01:42:47.562Z,81.23
2022-12-19T01:45:33.962Z,81.99
2022-12-19T01:48:17.407Z,81.33
2022-12-19T01:51:02.084Z,82.40
2022-12-19T01:53:46.438Z,82.07
2022-12-19T01:56:19.848Z,81.67
2022-12-19T01:58:50.660Z,81.54
2022-12-19T02:01:27.546Z,82.09
2022-12-19T02:03:58.958Z,81.87
2022-12-19T02:06:28.201Z,82.37
2022-12-19T02:08:59.283Z,82.77
2022-12-19T02:11:27.803Z,82.03
2022-12-19T02:13:56.169Z,82.95
2022-12-19T02:16:40.640Z,82.45
2022-12-19T02:19:40.172Z,82.60
2022-12-19T02:22:19.284Z,83.10
2022-12-19T02:25:29.300Z,83.00
2022-12-19T02:28:41.332Z,82.04
2022-12-19T02:31:18.037Z,81.89
2022-12-19T02:33:56.293Z,82.58
2022-12-19T02:36:38.992Z,83.15
2022-12-19T02:39:15.758Z,82.40
2022-12-19T02:41:51.464Z,83.02
2022-12-19T02:44:23.702Z,82.28
2022-12-19T02:46:54.603Z,83.59
2022-12-19T02:49:30.586Z,83.10
2022-12-19T02:51:59.618Z,83.80
2022-12-19T02:54:27.936Z,83.87
2022-12-19T02:57:06.283Z,83.10
2022-12-19T02:59:55.241Z,83.50
2022-12-19T03:02:37.303Z,84.09
2022-12-19T03:05:16.091Z,84.11
2022-12-19T03:07:53.410Z,84.21
2022-12-19T03:10:30.778Z,83.29
2022-12-19T03:13:04.164Z,83.79
2022-12-19T03:15:34.654Z,84.42
2022-12-19T03:18:04.557Z,84.01
2022-12-19T03:20:45.384Z,84.38
2022-12-19T03:23:14.190Z,84.53
2022-12-19T03:25:45.909Z,84.08
2022-12-19T03:28:20.562Z,84.53
2022-12-19T03:30:50.336Z,83.88
2022-12-19T03:33:21.648Z,84.75
2022-12-19T03:35:51.898Z,85.11
2022-12-19T03:38:22.937Z,85.12
2022-12-19T03:40:52.161Z,85.34
2022-12-19T03:43:21.387Z,84.69
2022-12-19T03:45:56.361Z,84.78
2022-12-19T03:48:32.128Z,85.08
2022-12-19T03:51:15.179Z,85.16
2022-12-19T03:53:53.429Z,84.95
2022-12-19T03:56:31.615Z,84.94
2022-12-19T03:59:07.704Z,86.02
2022-12-19T04:01:37.224Z,85.00
2022-12-19T04:04:08.445Z,85.85
2022-12-19T04:06:37.349Z,86.20
2022-12-19T04:09:06.182Z,85.54
2022-12-19T04:11:40.127Z,86.12
2022-12-19T04:14:14.188Z,85.96
2022-12-19T04:16:51.612Z,86.50
2022-12-19T04:19:27.616Z,86.61
2022-12-19T04:22:04.078Z,86.82
2022-12-19T04:24:36.057Z,86.73
2022-12-19T04:27:06.590Z,85.91
2022-12-19T04:29:36.676Z,86.21
2022-12-19T04:32:07.489Z,86.56
2022-12-19T04:34:42.569Z,86.05
2022-12-19T04:37:12.209Z,87.37
2022-12-19T04:39:40.553Z,86.26
2022-12-19T04:42:08.839Z,87.48
2022-12-19T04:44:37.123Z,87.52
2022-12-19T04:47:05.444Z,86.92
2022-12-19T04:49:33.838Z,86.59
2022-12-19T04:52:03.425Z,87.35
2022-12-19T04:54:31.745Z,86.80
2022-12-19T04:57:00.112Z,86.67
2022-12-19T04:59:29.631Z,87.73
2022-12-19T05:01:57.973Z,86.75
2022-12-19T05:04:27.724Z,87.61
2022-12-19T05:06:56.029Z,87.57
2022-12-19T05:09:25.784Z,88.25
2022-12-19T05:11:54.017Z,87.32
2022-12-19T05:14:22.295Z,87.63
2022-12-19T05:16:50.585Z,87.22
2022-12-19T05:19:19.105Z,88.38
2022-12-19T05:21:47.498Z,87.84
2022-12-19T05:24:15.865Z,88.43
2022-12-19T05:26:45.552Z,87.55
2022-12-19T05:29:14.033Z,87.70
2022-12-19T05:31:42.555Z,87.91
2022-12-19T05:34:10.828Z,87.89
2022-12-19T05:36:39.126Z,88.45
2022-12-19T05:39:07.383Z,87.80
2022-12-19T05:41:35.705Z,88.29
2022-12-19T05:44:05.481Z,88.33
2022-12-19T05:46:33.756Z,89.16
2022-12-19T05:49:02.103Z,89.32
2022-12-19T05:51:30.905Z,88.99
2022-12-19T05:53:59.201Z,88.88
2022-12-19T05:56:27.528Z,88.92
2022-12-19T05:58:56.127Z,88.87
2022-12-19T06:01:28.503Z,88.64
2022-12-19T06:03:57.124Z,88.60
2022-12-19T06:06:27.624Z,89.18
2022-12-19T06:08:56.579Z,89.79
2022-12-19T06:11:25.717Z,88.77
2022-12-19T06:13:54.631Z,89.32
2022-12-19T06:16:25.142Z,89.48
2022-12-19T06:18:53.412Z,89.46
2022-12-19T06:21:24.744Z,89.37
2022-12-19T06:23:53.013Z,89.75
2022-12-19T06:26:23.528Z,89.88
2022-12-19T06:28:53.721Z,89.55
2022-12-19T06:31:26.035Z,89.68
2022-12-19T06:33:55.796Z,90.37
2022-12-19T06:36:26.351Z,89.90
2022-12-19T06:38:57.865Z,90.08
2022-12-19T06:41:44.423Z,90.06
2022-12-19T06:44:14.981Z,89.80
2022-12-19T06:46:45.484Z,90.21
2022-12-19T06:49:13.858Z,90.29
2022-12-19T06:51:42.624Z,90.73
2022-12-19T06:54:13.892Z,90.46
2022-12-19T06:56:44.225Z,90.64
2022-12-19T06:59:15.549Z,90.81
2022-12-19T07:01:58.059Z,90.99
2022-12-19T07:04:31.565Z,90.84
2022-12-19T07:07:00.187Z,90.56
2022-12-19T07:09:30.104Z,90.91
2022-12-19T07:11:58.507Z,90.59
2022-12-19T07:14:26.741Z,91.02
2022-12-19T07:16:59.533Z,91.25
2022-12-19T07:19:29.756Z,90.96
2022-12-19T07:21:59.131Z,91.16
2022-12-19T07:24:28.955Z,91.34
2022-12-19T07:26:57.676Z,91.35
2022-12-19T07:29:26.822Z,91.67
2022-12-19T07:31:56.493Z,91.76
2022-12-19T07:34:24.805Z,91.88
2022-12-19T07:36:52.978Z,91.57
2022-12-19T07:39:21.986Z,91.91
2022-12-19T07:41:50.232Z,91.83
2022-12-19T07:44:18.430Z,91.99
2022-12-19T07:46:46.841Z,91.83
2022-12-19T07:49:22.314Z,92.21
2022-12-19T07:51:51.448Z,91.93
2022-12-19T07:54:19.613Z,91.99
2022-12-19T07:56:47.824Z,92.18
2022-12-19T07:59:16.473Z,92.03
2022-12-19T08:01:44.826Z,92.49
2022-12-19T08:04:13.544Z,92.60
2022-12-19T08:06:43.180Z,92.45
2022-12-19T08:09:11.951Z,92.52
2022-12-19T08:11:40.489Z,92.58
2022-12-19T08:14:08.919Z,92.31
2022-12-19T08:16:55.509Z,92.75
2022-12-19T08:19:27.628Z,92.73
2022-12-19T08:21:57.440Z,92.95
2022-12-19T08:24:25.660Z,92.85
2022-12-19T08:26:54.000Z,93.07
2022-12-19T08:29:22.530Z,92.65
2022-12-19T08:31:50.957Z,92.77
2022-12-19T08:34:19.419Z,92.70
2022-12-19T08:36:47.675Z,92.82
2022-12-19T08:39:17.619Z,92.77
2022-12-19T08:41:45.898Z,93.20
2022-12-19T08:44:14.155Z,93.43
2022-12-19T08:46:46.664Z,93.43
2022-12-19T08:49:18.185Z,93.09
2022-12-19T08:51:46.751Z,93.61
2022-12-19T08:54:16.498Z,93.33
2022-12-19T08:56:46.734Z,93.29
2022-12-19T08:59:22.204Z,93.33
2022-12-19T09:02:00.540Z,93.27
2022-12-19T09:05:55.470Z,93.72
2022-12-19T09:07:17.797Z,93.34
2022-12-19T09:09:47.493Z,93.64
2022-12-19T09:12:17.202Z,93.64
2022-12-19T09:14:45.745Z,93.39
2022-12-19T09:17:14.421Z,93.53
2022-12-19T09:19:47.118Z,93.33
2022-12-19T09:22:16.890Z,93.70
2022-12-19T09:24:47.219Z,93.87
2022-12-19T09:27:15.499Z,93.54
2022-12-19T09:29:44.315Z,94.01
2022-12-19T09:32:12.534Z,93.69
2022-12-19T09:34:40.779Z,94.07
2022-12-19T09:37:17.125Z,93.74
2022-12-19T09:39:48.557Z,94.20
2022-12-19T09:42:52.140Z,93.71
2022-12-19T09:45:51.427Z,94.18
2022-12-19T09:48:23.671Z,94.37
2022-12-19T09:51:10.399Z,94.36
2022-12-19T09:53:56.854Z,93.70
2022-12-19T09:56:34.085Z,94.48
2022-12-19T09:59:22.583Z,94.36
2022-12-19T10:01:59.128Z,94.45
2022-12-19T10:04:31.402Z,94.47
2022-12-19T10:07:19.831Z,94.42
2022-12-19T10:11:44.309Z,94.28
2022-12-19T10:13:12.162Z,94.06
2022-12-19T10:15:57.286Z,94.44
2022-12-19T10:18:44.970Z,94.53
2022-12-19T10:21:58.991Z,95.25
2022-12-19T10:25:02.053Z,94.91
2022-12-19T10:27:58.466Z,94.93
2022-12-19T10:30:29.075Z,95.05
2022-12-19T10:33:19.832Z,94.62
2022-12-19T10:35:57.526Z,95.06
2022-12-19T10:38:36.776Z,94.69
2022-12-19T10:41:19.307Z,95.38
2022-12-19T10:43:58.291Z,95.20
2022-12-19T10:46:40.004Z,94.74
2022-12-19T10:49:15.200Z,95.46
2022-12-19T10:51:44.225Z,94.90
2022-12-19T10:54:12.446Z,95.52
2022-12-19T10:56:40.670Z,95.48
2022-12-19T10:59:21.422Z,95.27
2022-12-19T11:01:54.241Z,95.56
2022-12-19T11:04:33.091Z,95.40
2022-12-19T11:07:20.485Z,95.30
2022-12-19T11:09:58.173Z,95.29
2022-12-19T11:16:55.554Z,95.20
2022-12-19T11:20:46.812Z,94.92
2022-12-19T11:27:39.965Z,94.81
2022-12-19T11:29:25.112Z,95.13
2022-12-19T11:30:05.880Z,95.18
2022-12-19T11:30:48.368Z,95.88
2022-12-19T11:32:44.826Z,94.75
2022-12-19T11:35:24.432Z,95.42
2022-12-19T11:37:58.527Z,96.09
2022-12-19T11:40:34.473Z,95.10
2022-12-19T11:43:43.225Z,95.77
2022-12-19T11:46:04.227Z,95.51
2022-12-19T11:49:22.448Z,95.52
2022-12-19T12:07:11.750Z,96.09
2022-12-19T12:17:18.659Z,95.35
2022-12-19T12:21:20.412Z,95.22
2022-12-19T12:25:33.073Z,95.26
2022-12-19T12:31:15.934Z,96.18
2022-12-19T12:31:27.851Z,96.02
2022-12-19T12:31:54.115Z,95.57
2022-12-19T12:31:58.100Z,96.57
2022-12-19T12:35:40.778Z,96.40
2022-12-19T12:35:56.941Z,95.96
2022-12-19T12:41:09.868Z,95.99
2022-12-19T12:43:57.701Z,96.15
2022-12-19T12:46:32.698Z,96.32
2022-12-19T12:49:05.202Z,96.13
2022-12-19T12:51:34.925Z,96.31
2022-12-19T12:54:09.592Z,95.65
2022-12-19T12:56:39.143Z,96.51
2022-12-19T12:59:24.320Z,95.81
2022-12-19T13:01:58.776Z,95.93
2022-12-19T13:04:32.683Z,96.49
2022-12-19T13:07:21.185Z,96.51
2022-12-19T13:10:06.826Z,95.88
2022-12-19T13:12:52.715Z,96.02
2022-12-19T13:15:40.197Z,96.55
2022-12-19T13:18:34.658Z,96.41
2022-12-19T13:21:07.953Z,96.17
2022-12-19T13:23:47.239Z,96.05
2022-12-19T13:26:51.092Z,96.89
2022-12-19T13:29:53.902Z,96.38
2022-12-19T13:32:23.937Z,96.07
2022-12-19T13:35:17.910Z,95.90
2022-12-19T13:39:50.749Z,96.45
2022-12-19T13:40:58.380Z,96.20
2022-12-19T13:43:48.870Z,96.42
2022-12-19T13:46:29.254Z,96.74
2022-12-19T13:49:02.631Z,96.76
2022-12-19T13:51:44.467Z,96.85
2022-12-19T13:54:24.992Z,97.00
2022-12-19T13:56:55.305Z,96.44
2022-12-19T13:59:29.698Z,96.15
2022-12-19T14:02:08.835Z,96.62
2022-12-19T14:04:37.345Z,97.07
2022-12-19T14:07:17.243Z,97.32
2022-12-19T14:11:29.029Z,96.75
2022-12-19T14:14:00.451Z,96.69
2022-12-19T14:15:52.460Z,96.50
2022-12-19T14:18:42.221Z,97.20
2022-12-19T14:22:05.276Z,96.32
2022-12-19T14:24:17.442Z,96.98
2022-12-19T14:28:20.205Z,97.27
2022-12-19T14:30:28.325Z,97.22
2022-12-19T14:33:39.695Z,96.67
2022-12-19T14:36:07.808Z,96.91
2022-12-19T14:39:27.195Z,96.61
2022-12-19T14:41:41.262Z,97.27
2022-12-19T14:52:50.945Z,96.67
2022-12-19T14:54:01.161Z,97.01
2022-12-19T14:54:01.799Z,96.71
2022-12-19T14:54:31.034Z,96.54
2022-12-19T14:56:06.251Z,96.49
2022-12-19T14:58:54.201Z,96.72
2022-12-19T15:01:25.126Z,97.24
2022-12-19T15:04:49.061Z,97.05
2022-12-19T15:07:06.812Z,97.54
2022-12-19T15:11:00.107Z,96.76
2022-12-19T15:14:54.268Z,96.99
2022-12-19T15:16:04.716Z,96.59
2022-12-19T15:18:42.471Z,96.72
2022-12-19T15:21:14.872Z,96.29
2022-12-19T15:23:45.781Z,96.61
2022-12-19T15:26:16.637Z,97.40
2022-12-19T15:28:49.600Z,96.92
2022-12-19T15:31:33.007Z,96.33
2022-12-19T15:36:50.846Z,96.90
2022-12-19T15:39:22.016Z,97.19
2022-12-19T15:41:54.823Z,97.40
2022-12-19T15:44:31.156Z,97.31
2022-12-19T15:47:00.261Z,96.81
2022-12-19T15:49:28.715Z,97.49
2022-12-19T15:51:57.024Z,96.39
2022-12-19T15:57:25.891Z,96.90
2022-12-19T15:59:54.655Z,96.31
2022-12-19T16:02:27.933Z,96.92
2022-12-19T16:05:06.649Z,96.74
2022-12-19T16:07:34.985Z,97.19
2022-12-19T16:10:06.050Z,97.02
2022-12-19T16:12:40.336Z,96.82
2022-12-19T16:15:20.843Z,96.70
2022-12-19T16:17:49.265Z,97.02
2022-12-19T16:20:25.408Z,95.99
2022-12-19T16:22:55.002Z,96.80
2022-12-19T16:25:34.766Z,97.23
2022-12-19T16:28:05.725Z,96.38
2022-12-19T16:30:36.072Z,96.78
2022-12-19T16:33:04.573Z,96.75
2022-12-19T16:38:21.518Z,96.79
2022-12-19T16:40:53.130Z,96.54
2022-12-19T16:43:28.250Z,96.70
2022-12-19T16:46:00.810Z,96.50
2022-12-19T16:48:30.990Z,96.32
2022-12-19T16:51:00.225Z,96.80
2022-12-19T16:53:29.273Z,97.04
2022-12-19T16:56:00.872Z,96.75
2022-12-19T16:58:30.655Z,96.68
2022-12-19T17:00:59.029Z,96.90
2022-12-19T17:03:32.634Z,97.40
2022-12-19T17:06:01.178Z,96.49
2022-12-19T17:08:29.706Z,96.99
2022-12-19T17:10:59.502Z,96.93
2022-12-19T17:13:28.101Z,96.40
2022-12-19T17:15:57.456Z,97.03
2022-12-19T17:18:30.698Z,96.26
2022-12-19T17:20:59.493Z,96.34
2022-12-19T17:23:30.322Z,97.56
2022-12-19T17:26:01.068Z,96.28
2022-12-19T17:28:31.597Z,97.02
2022-12-19T17:31:05.810Z,97.11
2022-12-19T17:33:37.828Z,96.49
2022-12-19T17:36:08.560Z,96.53
2022-12-19T17:38:36.922Z,97.45
2022-12-19T17:41:07.073Z,96.56
2022-12-19T17:43:35.789Z,96.45
2022-12-19T17:46:04.163Z,96.77
2022-12-19T17:48:35.169Z,96.56
2022-12-19T17:51:04.273Z,96.46
2022-12-19T17:53:33.676Z,96.88
2022-12-19T17:56:01.942Z,96.97
2022-12-19T17:58:31.664Z,96.85
2022-12-19T18:01:00.103Z,96.73
2022-12-19T18:03:28.787Z,95.93
2022-12-19T18:05:59.299Z,95.94
2022-12-19T18:08:31.138Z,96.05
2022-12-19T18:11:01.912Z,96.09
2022-12-19T18:13:32.758Z,96.52
2022-12-19T18:16:03.402Z,95.74
2022-12-19T18:18:35.255Z,95.80
2022-12-19T18:21:05.121Z,96.02
2022-12-19T18:23:33.606Z,95.18
2022-12-19T18:26:02.916Z,95.69
2022-12-19T18:28:32.935Z,95.55
2022-12-19T18:31:04.462Z,95.19
2022-12-19T18:33:39.554Z,94.95
2022-12-19T18:36:12.262Z,94.94
2022-12-19T18:38:40.589Z,95.17
2022-12-19T18:41:12.470Z,94.62
2022-12-19T18:43:42.171Z,95.14
2022-12-19T18:46:14.697Z,95.24
2022-12-19T18:48:44.706Z,94.65
2022-12-19T18:51:17.673Z,94.67
2022-12-19T18:53:47.508Z,95.10
2022-12-19T18:56:16.593Z,94.78
2022-12-19T18:58:46.229Z,94.48
2022-12-19T19:01:18.763Z,95.01
2022-12-19T19:03:54.150Z,94.73
2022-12-19T19:06:26.939Z,95.09
2022-12-19T19:08:56.855Z,94.58
2022-12-19T19:11:26.034Z,95.09
2022-12-19T19:13:55.769Z,94.67
2022-12-19T19:16:26.567Z,93.91
2022-12-19T19:18:57.298Z,94.49
2022-12-19T19:21:28.802Z,93.66
2022-12-19T19:24:02.127Z,94.28
2022-12-19T19:26:30.432Z,94.03
2022-12-19T19:29:02.701Z,93.81
2022-12-19T19:31:35.375Z,93.78
2022-12-19T19:34:13.455Z,93.76
2022-12-19T19:36:47.008Z,94.39
2022-12-19T19:39:15.543Z,93.67
2022-12-19T19:41:43.849Z,93.47
2022-12-19T19:44:13.529Z,93.67
2022-12-19T19:46:41.947Z,94.08
2022-12-19T19:49:10.492Z,93.95
2022-12-19T19:51:39.247Z,93.50
2022-12-19T19:54:07.642Z,93.51
2022-12-19T19:56:35.949Z,93.52
2022-12-19T19:59:04.290Z,93.84
2022-12-19T20:01:34.377Z,93.32
2022-12-19T20:04:02.797Z,94.35
2022-12-19T20:06:31.205Z,93.88
2022-12-19T20:09:00.188Z,92.65
2022-12-19T20:11:28.608Z,93.42
2022-12-19T20:13:57.609Z,93.76
2022-12-19T20:16:26.380Z,93.22
2022-12-19T20:18:56.327Z,93.29
2022-12-19T20:21:25.116Z,93.45
2022-12-19T20:23:54.124Z,92.79
2022-12-19T20:26:22.759Z,92.91
2022-12-19T20:28:52.538Z,93.03
2022-12-19T20:31:24.090Z,93.71
2022-12-19T20:33:56.643Z,92.72
2022-12-19T20:36:26.271Z,92.56
2022-12-19T20:38:54.857Z,92.52
2022-12-19T20:41:23.365Z,92.14
2022-12-19T20:43:53.021Z,93.29
2022-12-19T20:46:23.242Z,92.64
2022-12-19T20:48:52.436Z,92.29
2022-12-19T20:51:23.316Z,92.98
2022-12-19T20:53:54.917Z,92.86
2022-12-19T20:56:25.907Z,92.35
2022-12-19T20:58:54.448Z,92.79
2022-12-19T21:01:25.667Z,92.81
2022-12-19T21:03:54.463Z,91.97
2022-12-19T21:06:27.195Z,92.33
2022-12-19T21:08:56.119Z,91.43
2022-12-19T21:11:26.526Z,91.81
2022-12-19T21:13:55.397Z,91.99
2022-12-19T21:16:25.287Z,91.62
2022-12-19T21:18:53.910Z,92.02
2022-12-19T21:21:26.754Z,92.04
2022-12-19T21:23:55.881Z,91.71
2022-12-19T21:26:26.118Z,91.96
2022-12-19T21:28:58.350Z,91.61
2022-12-19T21:31:29.880Z,91.31
2022-12-19T21:34:00.396Z,91.54
2022-12-19T21:36:32.127Z,91.46
2022-12-19T21:39:02.976Z,91.65
2022-12-19T21:41:32.269Z,90.59
2022-12-19T21:44:01.402Z,91.00
2022-12-19T21:46:33.293Z,90.56
2022-12-19T21:49:02.901Z,91.04
2022-12-19T21:51:33.682Z,90.87
2022-12-19T21:54:05.746Z,91.04
2022-12-19T21:56:36.134Z,90.39
2022-12-19T21:59:06.755Z,90.69
2022-12-19T22:01:35.914Z,90.27
2022-12-19T22:04:07.069Z,90.73
2022-12-19T22:06:39.211Z,90.69
2022-12-19T22:09:10.785Z,90.37
2022-12-19T22:11:39.471Z,90.71
2022-12-19T22:14:08.552Z,89.93
2022-12-19T22:16:37.413Z,90.01
2022-12-19T22:19:06.617Z,89.81
2022-12-19T22:21:37.032Z,90.40
2022-12-19T22:24:06.468Z,89.72
2022-12-19T22:26:35.571Z,89.59
2022-12-19T22:29:09.409Z,90.16
2022-12-19T22:31:39.669Z,89.75
2022-12-19T22:34:11.109Z,89.26
2022-12-19T22:36:43.295Z,89.46
2022-12-19T22:39:14.229Z,89.81
2022-12-19T22:41:43.157Z,89.34
2022-12-19T22:44:21.032Z,89.45
2022-12-19T22:46:50.122Z,88.67
2022-12-19T22:49:18.860Z,89.39
2022-12-19T22:51:49.366Z,88.51
2022-12-19T22:54:17.863Z,89.06
2022-12-19T22:56:46.191Z,89.02
2022-12-19T22:59:14.655Z,88.84
2022-12-19T23:01:44.843Z,88.84
2022-12-19T23:04:17.662Z,88.92
2022-12-19T23:06:48.088Z,88.72
2022-12-19T23:09:23.196Z,88.60
2022-12-19T23:11:51.618Z,88.23
2022-12-19T23:14:21.139Z,88.14
2022-12-19T23:16:50.439Z,88.34
2022-12-19T23:19:19.548Z,88.38
2022-12-19T23:21:49.424Z,88.38
2022-12-19T23:24:17.923Z,88.32
2022-12-19T23:26:46.253Z,88.16
2022-12-19T23:29:16.430Z,87.94
2022-12-19T23:31:47.093Z,87.99
2022-12-19T23:34:16.315Z,87.80
2022-12-19T23:39:34.596Z,87.61
2022-12-19T23:42:03.089Z,87.76
2022-12-19T23:44:31.734Z,87.79
2022-12-19T23:47:03.632Z,87.81
2022-12-19T23:49:33.578Z,87.96
2022-12-19T23:52:02.161Z,88.03
2022-12-19T23:54:30.628Z,87.50
2022-12-19T23:57:00.511Z,87.83
2022-12-19T23:59:28.840Z,88.03
